KWJF/WJF METAR and TAF weather

Enter ICAO airport designator
Station Type Date Time Source
KWJF METAR 2019/02/22 22:56 UTC NOAA

KWJF 222256Z 24005KT 10SM CLR 10/M09 A3001 RMK AO2 SLP174 T01001089


Station Type Date Time Source
KWJF Decoded METAR 2019/02/22 22:56 UTC NOAA

LANCASTER FOX AIRFIELD, CA, United States (KWJF) 34-44N 118-13W
Feb 22, 2019 - 05:56 PM EST / 2019.02.22 2256 UTC
Wind: from the WSW (240 degrees) at 6 MPH (5 KT):0
Visibility: 10 mile(s):0
Sky conditions: clear
Temperature: 50.0 F (10.0 C)
Dew Point: 16.0 F (-8.9 C)
Relative Humidity: 25%
Pressure (altimeter): 30.01 in. Hg (1016 hPa)
ob: KWJF 222256Z 24005KT 10SM CLR 10/M09 A3001 RMK AO2 SLP174 T01001089
cycle: 23

Station Type Date Time Source
KWJF TAF 2019/02/22 18:33 UTC NOAA

TAF KWJF 221731Z 2218/2318 04005KT P6SM SKC
FM222100 29010KT P6SM SKC
FM230800 27005KT P6SM SKC
FM231200 VRB03KT P6SM SKC


Example: see airport list